Time;durP1;ratioP1;P1;durP2;ratioP2;P2;SDS_P1;SDS_P2;PMS_P1;PMS_P2;Temp;Humidity;BMP_temperature;BMP_pressure;BME280_temperature;BME280_humidity;BME280_pressure;Samples;Min_cycle;Max_cycle;Signal;HPM_P1;HPM_P2
2021/10/09 00:00:11;;;;;;;43.45;30.27;;;13.40;99.90;;;;;;5063327;28;20183;-69
2021/10/09 00:02:37;;;;;;;48.28;30.65;;;13.40;99.90;;;;;;5063233;28;20287;-69
2021/10/09 00:05:04;;;;;;;47.80;31.50;;;13.40;99.90;;;;;;5061993;28;20179;-68
2021/10/09 00:07:29;;;;;;;43.38;30.00;;;13.30;99.90;;;;;;5059085;28;20210;-69
2021/10/09 00:09:59;;;;;;;51.13;30.70;;;13.30;99.90;;;;;;5063074;28;20269;-69
2021/10/09 00:12:26;;;;;;;42.15;30.58;;;13.30;99.90;;;;;;5061889;28;20191;-69
2021/10/09 00:14:52;;;;;;;43.00;30.67;;;13.30;99.90;;;;;;5064887;28;20205;-68
2021/10/09 00:17:19;;;;;;;47.75;32.60;;;13.30;99.90;;;;;;5078850;28;20194;-69
2021/10/09 00:19:45;;;;;;;48.53;31.25;;;13.20;99.90;;;;;;5066661;28;20198;-69
2021/10/09 00:22:11;;;;;;;44.72;31.45;;;13.20;99.90;;;;;;5057170;28;20640;-69
2021/10/09 00:24:36;;;;;;;45.03;31.75;;;13.20;99.90;;;;;;5063840;28;20190;-69
2021/10/09 00:27:02;;;;;;;50.40;32.42;;;13.20;99.90;;;;;;5069881;28;20218;-70
2021/10/09 00:29:28;;;;;;;50.38;31.85;;;13.20;99.90;;;;;;5041952;28;20614;-69
2021/10/09 00:31:53;;;;;;;45.65;30.98;;;13.20;99.90;;;;;;5078663;28;20230;-69
2021/10/09 00:34:19;;;;;;;50.55;31.45;;;13.10;99.90;;;;;;5055989;28;20533;-69
2021/10/09 00:36:44;;;;;;;45.00;31.52;;;13.10;99.90;;;;;;5056653;28;20194;-69
2021/10/09 00:39:10;;;;;;;46.67;31.30;;;13.10;99.90;;;;;;5079494;28;20237;-69
2021/10/09 00:41:36;;;;;;;46.83;32.03;;;13.00;99.90;;;;;;5058890;28;20542;-69
2021/10/09 00:44:10;;;;;;;48.50;32.42;;;13.00;99.90;;;;;;5065381;28;20187;-69
2021/10/09 00:46:38;;;;;;;45.88;32.65;;;13.00;99.90;;;;;;5040417;28;20203;-69
2021/10/09 00:49:04;;;;;;;49.20;32.67;;;13.00;99.90;;;;;;5067265;28;20531;-69
2021/10/09 00:51:30;;;;;;;45.28;32.05;;;13.00;99.90;;;;;;5077878;28;20191;-69
2021/10/09 00:53:59;;;;;;;44.53;31.38;;;12.90;99.90;;;;;;5078657;28;20255;-69
2021/10/09 00:56:26;;;;;;;47.45;33.28;;;12.90;99.90;;;;;;5058116;28;20191;-69
2021/10/09 00:58:53;;;;;;;46.67;32.40;;;12.90;99.90;;;;;;5047302;28;20194;-69
2021/10/09 01:01:18;;;;;;;51.80;32.85;;;12.90;99.90;;;;;;5059027;28;20269;-69
2021/10/09 01:03:46;;;;;;;49.05;32.90;;;12.90;99.90;;;;;;5082050;28;20690;-69
2021/10/09 01:06:11;;;;;;;51.55;33.95;;;12.80;99.90;;;;;;5061174;28;20653;-69
2021/10/09 01:08:37;;;;;;;52.55;34.40;;;12.80;99.90;;;;;;5082691;28;20186;-69
2021/10/09 01:11:03;;;;;;;53.92;34.92;;;12.80;99.90;;;;;;5040924;28;20322;-69
2021/10/09 01:13:28;;;;;;;54.55;35.10;;;12.80;99.90;;;;;;5044947;28;20265;-69
2021/10/09 01:15:54;;;;;;;52.72;34.97;;;12.80;99.90;;;;;;5063898;28;20182;-70
2021/10/09 01:18:20;;;;;;;55.17;34.53;;;12.80;99.90;;;;;;5047088;28;20186;-69
2021/10/09 01:20:55;;;;;;;52.72;33.83;;;12.80;99.90;;;;;;5050675;28;20187;-69
2021/10/09 01:23:28;;;;;;;51.28;34.05;;;12.80;99.90;;;;;;5063048;28;20183;-69
2021/10/09 01:25:56;;;;;;;50.30;35.03;;;12.70;99.90;;;;;;5042588;28;21266;-69
2021/10/09 01:28:23;;;;;;;52.83;33.75;;;12.70;99.90;;;;;;5049582;28;20709;-69
2021/10/09 01:30:48;;;;;;;52.78;34.15;;;12.70;99.90;;;;;;5049828;28;20277;-69
2021/10/09 01:33:15;;;;;;;52.70;34.08;;;12.70;99.90;;;;;;5058981;28;20679;-70
2021/10/09 01:35:54;;;;;;;53.85;33.95;;;12.70;99.90;;;;;;5065833;28;20186;-69
2021/10/09 01:38:28;;;;;;;50.25;33.83;;;12.70;99.90;;;;;;5083732;28;20174;-69
2021/10/09 01:40:55;;;;;;;49.10;33.35;;;12.70;99.90;;;;;;5066689;28;20234;-69
2021/10/09 01:43:24;;;;;;;50.85;34.33;;;12.70;99.90;;;;;;5048299;28;20194;-69
2021/10/09 01:45:49;;;;;;;55.28;35.30;;;12.60;99.90;;;;;;5084188;28;20651;-69
2021/10/09 01:48:16;;;;;;;55.15;35.20;;;12.60;99.90;;;;;;5084342;28;20183;-69
2021/10/09 01:50:43;;;;;;;52.63;35.38;;;12.60;99.90;;;;;;5061057;28;20273;-70
2021/10/09 01:53:11;;;;;;;55.47;35.40;;;12.60;99.90;;;;;;5065552;28;20231;-70
2021/10/09 01:55:38;;;;;;;54.28;35.30;;;12.60;99.90;;;;;;5084478;28;20183;-68
2021/10/09 01:58:06;;;;;;;58.15;35.10;;;12.60;99.90;;;;;;5083165;28;20663;-69
2021/10/09 02:00:33;;;;;;;55.80;36.38;;;12.50;99.90;;;;;;5048522;28;20190;-69
2021/10/09 02:03:07;;;;;;;54.38;35.33;;;12.50;99.90;;;;;;5066614;28;20223;-69
2021/10/09 02:05:34;;;;;;;61.75;37.25;;;12.50;99.90;;;;;;5048430;28;20191;-69
2021/10/09 02:08:01;;;;;;;58.88;36.38;;;12.50;99.90;;;;;;5040963;28;20207;-68
2021/10/09 02:10:28;;;;;;;60.13;36.33;;;12.50;99.90;;;;;;5085180;28;20182;-70
2021/10/09 02:12:59;;;;;;;54.80;36.38;;;12.50;99.90;;;;;;5078759;28;20191;-68
2021/10/09 02:15:36;;;;;;;55.17;36.30;;;12.50;99.90;;;;;;5050159;28;20182;-69
2021/10/09 02:18:26;;;;;;;55.33;35.20;;;12.50;99.90;;;;;;5061109;28;20186;-69
2021/10/09 02:26:20;;;;;;;53.03;34.95;;;12.40;99.90;;;;;;5044250;28;20214;-70
2021/10/09 02:28:46;;;;;;;55.55;35.65;;;12.30;99.90;;;;;;5064124;28;20191;-69
2021/10/09 02:31:11;;;;;;;54.92;35.88;;;12.30;99.90;;;;;;5077093;28;20194;-69
2021/10/09 02:33:37;;;;;;;53.88;36.15;;;12.30;99.90;;;;;;5064933;28;20638;-67
2021/10/09 02:36:03;;;;;;;55.35;35.30;;;12.30;99.90;;;;;;5064209;28;20180;-69
2021/10/09 02:38:29;;;;;;;58.35;34.65;;;12.30;99.90;;;;;;5049600;28;20185;-70
2021/10/09 02:40:55;;;;;;;52.60;34.80;;;12.20;99.90;;;;;;5046075;28;20179;-69
2021/10/09 02:43:22;;;;;;;52.53;34.70;;;12.20;99.90;;;;;;5043999;28;20175;-69
2021/10/09 02:45:49;;;;;;;53.38;34.55;;;12.20;99.90;;;;;;5083148;28;20719;-68
2021/10/09 02:48:16;;;;;;;55.55;34.42;;;12.20;99.90;;;;;;5084690;28;20537;-69
2021/10/09 02:50:45;;;;;;;52.58;33.85;;;12.20;99.90;;;;;;5068286;28;20178;-69
2021/10/09 02:53:13;;;;;;;58.75;35.15;;;12.10;99.90;;;;;;5047701;28;20235;-70
2021/10/09 02:55:39;;;;;;;53.67;35.60;;;12.10;99.90;;;;;;5049905;28;20183;-69
2021/10/09 02:58:05;;;;;;;56.10;35.70;;;12.20;99.90;;;;;;5080805;28;20179;-68
2021/10/09 03:00:31;;;;;;;58.10;36.30;;;12.10;99.90;;;;;;5050329;28;20259;-70
2021/10/09 03:02:56;;;;;;;56.38;34.55;;;12.10;99.90;;;;;;5064022;28;20236;-69
2021/10/09 03:05:23;;;;;;;58.92;35.88;;;12.10;99.90;;;;;;5049925;28;20524;-70
2021/10/09 03:07:49;;;;;;;55.50;35.47;;;12.10;99.90;;;;;;5077318;28;20206;-69
2021/10/09 03:10:14;;;;;;;56.55;36.17;;;12.10;99.90;;;;;;5066391;28;20194;-70
2021/10/09 03:12:43;;;;;;;57.83;36.70;;;12.10;99.90;;;;;;5079169;28;20179;-70
2021/10/09 03:15:10;;;;;;;54.45;35.30;;;12.00;99.90;;;;;;5077916;28;20615;-69
2021/10/09 03:17:36;;;;;;;55.17;34.83;;;12.00;99.90;;;;;;5046003;28;20550;-70
2021/10/09 03:20:05;;;;;;;63.75;37.10;;;12.00;99.90;;;;;;5049427;28;20272;-70
2021/10/09 03:22:31;;;;;;;55.78;35.22;;;12.00;99.90;;;;;;5043973;28;20182;-69
2021/10/09 03:24:58;;;;;;;61.45;37.15;;;12.00;99.90;;;;;;5084438;28;20708;-70
2021/10/09 03:27:23;;;;;;;61.00;37.55;;;12.00;99.90;;;;;;5062349;28;20236;-69
2021/10/09 03:29:49;;;;;;;57.55;35.92;;;12.00;99.90;;;;;;5067691;28;20261;-70
2021/10/09 03:32:16;;;;;;;58.58;35.88;;;12.00;99.90;;;;;;5060673;28;20266;-70
2021/10/09 03:34:42;;;;;;;59.40;36.45;;;11.90;99.90;;;;;;5083683;28;20269;-69
2021/10/09 03:37:09;;;;;;;55.20;35.05;;;11.90;99.90;;;;;;5056282;28;20231;-69
2021/10/09 03:39:38;;;;;;;57.42;34.50;;;11.90;99.90;;;;;;5064156;28;20228;-69
2021/10/09 03:42:12;;;;;;;56.63;36.10;;;11.90;99.90;;;;;;5045100;28;20183;-69
2021/10/09 03:44:45;;;;;;;54.10;33.88;;;11.80;99.90;;;;;;5082859;28;20769;-69
2021/10/09 03:50:05;;;;;;;55.92;35.17;;;11.70;99.90;;;;;;5050679;28;20290;-69
2021/10/09 03:52:38;;;;;;;54.47;34.40;;;11.70;99.90;;;;;;5060651;28;20213;-71
2021/10/09 03:55:07;;;;;;;56.28;35.55;;;11.70;99.90;;;;;;5083236;28;20203;-70
2021/10/09 03:57:34;;;;;;;59.35;36.28;;;11.70;99.90;;;;;;5071345;28;20189;-69
2021/10/09 04:00:02;;;;;;;60.10;37.42;;;11.70;99.90;;;;;;5050026;28;20658;-69
2021/10/09 04:02:30;;;;;;;60.63;37.35;;;11.70;99.90;;;;;;5064748;28;20222;-70
2021/10/09 04:04:56;;;;;;;58.10;37.10;;;11.70;99.90;;;;;;5083964;28;20929;-69
2021/10/09 04:07:23;;;;;;;59.80;36.65;;;11.70;99.90;;;;;;5047631;28;20213;-70
2021/10/09 04:09:49;;;;;;;54.90;35.63;;;11.60;99.90;;;;;;5048851;28;20183;-70
2021/10/09 04:12:15;;;;;;;63.20;37.70;;;11.60;99.90;;;;;;5078165;28;20521;-69
2021/10/09 04:14:41;;;;;;;65.43;37.85;;;11.60;99.90;;;;;;5063632;28;20553;-70
2021/10/09 04:17:07;;;;;;;59.90;36.50;;;11.60;99.90;;;;;;5078735;28;20718;-69
2021/10/09 04:19:35;;;;;;;58.90;37.45;;;11.60;99.90;;;;;;5047076;28;20182;-70
2021/10/09 04:22:03;;;;;;;61.30;37.45;;;11.60;99.90;;;;;;5041210;28;20193;-69
2021/10/09 04:24:31;;;;;;;58.42;36.00;;;11.60;99.90;;;;;;5047979;28;20183;-69
2021/10/09 04:26:58;;;;;;;59.97;36.60;;;11.60;99.90;;;;;;5040256;28;20293;-69
2021/10/09 04:29:24;;;;;;;64.55;37.95;;;11.50;99.90;;;;;;5049623;28;20265;-70
2021/10/09 04:31:51;;;;;;;63.42;39.47;;;11.50;99.90;;;;;;5080444;28;20192;-70
2021/10/09 04:34:17;;;;;;;63.50;38.13;;;11.50;99.90;;;;;;5081504;28;20248;-70
2021/10/09 04:36:43;;;;;;;65.25;38.00;;;11.50;99.90;;;;;;5077377;28;20903;-71
2021/10/09 04:39:10;;;;;;;59.67;37.25;;;11.50;99.90;;;;;;5066514;28;20271;-70
2021/10/09 04:41:36;;;;;;;72.20;39.00;;;11.40;99.90;;;;;;5077716;28;20178;-70
2021/10/09 04:44:01;;;;;;;64.20;38.70;;;11.40;99.90;;;;;;5081918;28;20178;-70
2021/10/09 04:46:29;;;;;;;70.05;39.22;;;11.40;99.90;;;;;;5079748;28;20201;-71
2021/10/09 04:48:54;;;;;;;68.13;39.25;;;11.40;99.90;;;;;;5064079;28;20269;-70
2021/10/09 04:51:20;;;;;;;67.78;40.10;;;11.40;99.90;;;;;;5056627;28;20286;-69
2021/10/09 04:53:46;;;;;;;59.40;38.25;;;11.40;99.90;;;;;;5058277;28;20182;-71
2021/10/09 04:56:11;;;;;;;61.25;38.35;;;11.40;99.90;;;;;;5035589;28;20604;-70
2021/10/09 04:58:37;;;;;;;67.63;38.38;;;11.40;99.90;;;;;;5069309;28;20181;-70
2021/10/09 05:01:04;;;;;;;62.67;38.58;;;11.40;99.90;;;;;;5073902;28;20183;-70
2021/10/09 05:03:30;;;;;;;68.30;40.03;;;11.40;99.90;;;;;;5065201;28;20214;-70
2021/10/09 05:05:55;;;;;;;69.63;40.42;;;11.30;99.90;;;;;;5075599;28;20187;-69
2021/10/09 05:08:22;;;;;;;68.20;40.20;;;11.30;99.90;;;;;;5078422;28;20657;-69
2021/10/09 05:10:48;;;;;;;63.75;39.53;;;11.40;99.90;;;;;;5073804;28;20198;-71
2021/10/09 05:13:17;;;;;;;65.72;40.65;;;11.30;99.90;;;;;;5056083;28;20696;-69
2021/10/09 05:15:45;;;;;;;70.28;39.17;;;11.30;99.90;;;;;;5073516;28;20202;-69
2021/10/09 05:18:16;;;;;;;64.53;39.00;;;11.30;99.90;;;;;;5063368;28;20991;-69
2021/10/09 05:20:42;;;;;;;59.80;37.65;;;11.30;99.90;;;;;;5045453;28;20179;-69
2021/10/09 05:23:12;;;;;;;61.17;38.40;;;11.30;99.90;;;;;;5056940;28;20174;-69
2021/10/09 05:25:38;;;;;;;62.55;39.78;;;11.30;99.90;;;;;;5055287;28;20178;-70
2021/10/09 05:28:12;;;;;;;69.60;41.20;;;11.30;99.90;;;;;;5078246;28;20217;-69
2021/10/09 05:30:45;;;;;;;70.53;40.28;;;11.20;99.90;;;;;;5081301;28;20244;-70
2021/10/09 05:35:37;;;;;;;69.15;39.75;;;11.20;99.90;;;;;;5048920;28;20190;-70
2021/10/09 05:38:03;;;;;;;69.18;41.05;;;11.20;99.90;;;;;;5077428;28;20209;-71
2021/10/09 05:40:28;;;;;;;74.00;42.10;;;11.20;99.90;;;;;;5059809;28;20182;-68
2021/10/09 05:42:56;;;;;;;70.93;42.58;;;11.20;99.90;;;;;;5062714;28;20613;-69
2021/10/09 05:45:22;;;;;;;66.55;40.35;;;11.20;99.90;;;;;;5066266;28;20194;-69
2021/10/09 05:47:50;;;;;;;71.47;43.22;;;11.20;99.90;;;;;;5045171;28;20202;-69
2021/10/09 05:50:18;;;;;;;68.30;42.13;;;11.10;99.90;;;;;;5048537;28;20222;-70
2021/10/09 05:52:50;;;;;;;75.38;42.35;;;11.10;99.90;;;;;;5041203;28;20189;-69
2021/10/09 05:55:25;;;;;;;67.13;40.97;;;11.10;99.90;;;;;;5065077;28;20214;-68
2021/10/09 06:00:55;;;;;;;71.45;41.85;;;11.10;99.90;;;;;;5065497;28;20190;-69
2021/10/09 06:50:37;;;;;;;74.45;44.22;;;11.10;99.90;;;;;;5050798;28;20209;-72
2021/10/09 07:01:18;;;;;;;77.45;44.05;;;11.30;99.90;;;;;;5046546;28;20182;-72
2021/10/09 07:03:45;;;;;;;85.68;49.15;;;11.40;99.90;;;;;;5049603;28;20647;-72
2021/10/09 07:06:11;;;;;;;81.60;45.30;;;11.40;99.90;;;;;;5080811;28;20179;-72
2021/10/09 07:08:55;;;;;;;75.32;43.35;;;11.50;99.90;;;;;;5048407;28;20182;-72
2021/10/09 07:11:34;;;;;;;76.70;44.53;;;11.50;99.90;;;;;;5047460;28;20281;-71
2021/10/09 07:14:00;;;;;;;74.60;43.83;;;11.60;99.90;;;;;;5050474;28;20274;-71
2021/10/09 07:16:26;;;;;;;70.88;43.35;;;11.60;99.90;;;;;;5044796;28;20275;-72
2021/10/09 07:18:52;;;;;;;73.82;44.13;;;11.60;99.90;;;;;;5050845;28;20190;-73
2021/10/09 07:21:17;;;;;;;74.00;43.83;;;11.70;99.90;;;;;;5066235;28;20600;-71
2021/10/09 07:23:43;;;;;;;70.95;41.80;;;11.70;99.90;;;;;;5082881;28;20175;-73
2021/10/09 07:26:10;;;;;;;71.32;42.88;;;11.80;99.90;;;;;;5082680;28;20658;-72
2021/10/09 07:28:36;;;;;;;76.45;43.17;;;11.80;99.90;;;;;;5067613;28;20182;-73
2021/10/09 07:31:02;;;;;;;74.82;42.33;;;11.90;99.90;;;;;;5050865;28;20213;-72
2021/10/09 07:33:27;;;;;;;71.22;41.85;;;11.90;99.90;;;;;;5069022;28;20643;-72
2021/10/09 07:35:53;;;;;;;71.80;42.13;;;11.90;99.90;;;;;;5066048;28;20182;-71
2021/10/09 07:38:19;;;;;;;72.43;41.25;;;12.00;99.90;;;;;;5084236;28;20592;-70
2021/10/09 07:40:44;;;;;;;72.43;42.45;;;12.00;99.90;;;;;;5065903;28;20215;-71
2021/10/09 07:43:10;;;;;;;72.43;42.72;;;12.10;99.90;;;;;;5083373;28;21782;-72
2021/10/09 07:45:36;;;;;;;70.80;42.58;;;12.20;99.90;;;;;;5047717;28;20190;-72
2021/10/09 07:48:02;;;;;;;76.22;43.70;;;12.20;99.90;;;;;;5066779;28;20219;-72
2021/10/09 07:50:28;;;;;;;70.20;42.70;;;12.30;99.90;;;;;;5068490;28;20171;-71
2021/10/09 07:52:53;;;;;;;70.07;42.10;;;12.30;99.90;;;;;;5067935;28;20190;-72
2021/10/09 07:55:19;;;;;;;68.78;41.53;;;12.40;99.90;;;;;;5050526;28;20214;-73
2021/10/09 07:57:44;;;;;;;69.22;40.92;;;12.40;99.90;;;;;;5067146;28;20194;-72
2021/10/09 08:00:10;;;;;;;63.97;39.38;;;12.50;99.90;;;;;;5064260;28;20179;-71
2021/10/09 08:02:46;;;;;;;65.60;40.60;;;12.60;99.90;;;;;;5066442;28;20227;-71
2021/10/09 08:05:12;;;;;;;64.00;38.20;;;12.70;99.90;;;;;;5048404;28;20286;-70
2021/10/09 08:07:37;;;;;;;52.05;36.20;;;13.00;99.90;;;;;;5047890;28;20650;-73
2021/10/09 08:10:03;;;;;;;46.90;33.80;;;13.50;99.90;;;;;;5048828;28;20810;-72
2021/10/09 08:12:29;;;;;;;45.47;32.03;;;15.50;99.90;;;;;;5067935;28;20273;-72
2021/10/09 08:14:54;;;;;;;42.00;30.80;;;16.00;99.90;;;;;;5078965;28;20447;-73
2021/10/09 08:17:20;;;;;;;;;;;18.00;99.80;;;;;;5064076;28;20040;-72
2021/10/09 08:19:46;;;;;;;42.25;28.13;;;18.20;99.90;;;;;;5061662;28;20737;-72
2021/10/09 08:22:12;;;;;;;40.23;28.93;;;18.60;99.90;;;;;;5063491;28;20422;-73
2021/10/09 08:25:40;;;;;;;39.58;29.50;;;21.00;90.90;;;;;;5046639;28;20413;-73
2021/10/09 08:41:08;;;;;;;30.33;23.02;;;25.10;71.50;;;;;;5066278;28;20606;-73
2021/10/09 08:43:34;;;;;;;32.88;23.60;;;25.50;69.60;;;;;;5066875;28;20634;-73
2021/10/09 08:46:00;;;;;;;36.80;23.27;;;25.80;66.70;;;;;;5066565;28;20708;-73
2021/10/09 08:48:28;;;;;;;29.17;22.27;;;26.20;64.60;;;;;;5067063;28;20201;-73
2021/10/09 08:50:57;;;;;;;30.20;22.73;;;26.60;61.80;;;;;;5063117;28;20202;-72
2021/10/09 08:53:38;;;;;;;30.67;22.00;;;26.90;59.80;;;;;;5081658;28;20276;-74
2021/10/09 08:56:04;;;;;;;30.45;21.02;;;27.20;57.90;;;;;;5065362;28;20181;-71
2021/10/09 08:58:38;;;;;;;29.15;21.95;;;27.50;56.00;;;;;;5066467;28;20638;-71
2021/10/09 09:01:10;;;;;;;26.05;20.58;;;27.60;55.10;;;;;;5064439;28;20195;-70
2021/10/09 09:04:44;;;;;;;29.67;21.25;;;27.80;54.10;;;;;;5067018;28;20275;-71
2021/10/09 09:37:16;;;;;;;27.92;21.25;;;30.00;46.00;;;;;;5065256;28;20198;-70
2021/10/09 09:39:44;;;;;;;25.65;19.88;;;30.10;45.10;;;;;;5068500;28;20185;-71
2021/10/09 09:42:10;;;;;;;25.45;20.00;;;30.20;44.60;;;;;;5067838;28;20193;-71
2021/10/09 09:44:50;;;;;;;27.42;20.67;;;30.40;43.80;;;;;;5082877;28;20190;-71
2021/10/09 09:47:16;;;;;;;29.52;20.58;;;30.50;43.10;;;;;;5051649;28;20684;-71
2021/10/09 09:49:42;;;;;;;25.92;20.52;;;30.60;42.90;;;;;;5070709;28;20186;-70
2021/10/09 09:52:08;;;;;;;30.30;20.38;;;30.40;42.50;;;;;;5070670;28;20202;-70
2021/10/09 09:54:34;;;;;;;31.50;20.08;;;30.40;42.40;;;;;;5070693;28;20182;-71
2021/10/09 09:57:02;;;;;;;27.10;20.13;;;30.30;42.20;;;;;;5070929;28;20744;-70
2021/10/09 09:59:31;;;;;;;29.15;20.95;;;30.30;42.00;;;;;;5059496;28;20678;-71
2021/10/09 10:02:02;;;;;;;27.77;19.13;;;30.40;42.30;;;;;;5066320;28;20222;-71
2021/10/09 10:04:32;;;;;;;32.10;21.08;;;30.50;41.90;;;;;;5065131;28;20187;-71
2021/10/09 10:07:02;;;;;;;27.40;19.92;;;30.60;41.50;;;;;;5067275;28;20282;-70
2021/10/09 10:09:30;;;;;;;27.27;19.63;;;30.70;41.10;;;;;;5068261;28;20178;-71
2021/10/09 10:12:06;;;;;;;28.92;20.10;;;30.70;41.20;;;;;;5069174;28;20274;-71
2021/10/09 10:14:33;;;;;;;26.55;19.85;;;30.70;41.00;;;;;;5083797;28;20190;-72
2021/10/09 10:16:59;;;;;;;27.40;20.15;;;30.80;40.50;;;;;;5049139;28;20654;-74
2021/10/09 10:19:53;;;;;;;38.42;20.27;;;30.80;40.30;;;;;;5069527;28;20268;-71
2021/10/09 10:22:33;;;;;;;23.23;19.60;;;30.90;40.00;;;;;;5065402;28;20182;-71
2021/10/09 10:24:59;;;;;;;27.60;19.80;;;30.90;40.10;;;;;;5069626;28;20189;-71
2021/10/09 10:27:40;;;;;;;26.08;19.95;;;31.00;40.00;;;;;;5065793;28;20240;-70
2021/10/09 10:30:15;;;;;;;29.02;20.35;;;31.00;39.80;;;;;;5069120;28;20182;-72
2021/10/09 10:32:52;;;;;;;26.63;20.13;;;31.20;39.90;;;;;;5083115;28;20178;-72
2021/10/09 10:35:29;;;;;;;30.67;21.10;;;31.40;39.60;;;;;;5065116;28;20194;-70
2021/10/09 10:38:10;;;;;;;28.85;20.63;;;31.40;39.50;;;;;;5047815;28;20193;-71
2021/10/09 10:40:58;;;;;;;26.67;19.75;;;31.50;39.50;;;;;;5068519;28;20190;-71
2021/10/09 10:43:41;;;;;;;27.35;21.02;;;31.60;39.40;;;;;;5068866;28;20189;-71
2021/10/09 10:46:46;;;;;;;35.03;21.20;;;31.80;39.20;;;;;;5050702;28;20235;-73
2021/10/09 10:49:20;;;;;;;28.90;21.08;;;31.90;38.80;;;;;;5068436;28;20674;-70
2021/10/09 10:52:07;;;;;;;27.88;20.63;;;32.10;38.70;;;;;;5073448;28;20189;-72
2021/10/09 10:54:35;;;;;;;26.58;20.75;;;32.30;38.10;;;;;;5067950;28;20261;-71
2021/10/09 10:57:03;;;;;;;28.77;20.08;;;32.40;37.80;;;;;;5068166;28;20186;-71
2021/10/09 10:59:36;;;;;;;27.88;20.63;;;32.60;37.30;;;;;;5064961;28;20198;-71
2021/10/09 11:02:21;;;;;;;28.92;19.40;;;32.70;36.50;;;;;;5068511;28;20225;-70
2021/10/09 11:05:01;;;;;;;27.98;19.20;;;32.70;36.00;;;;;;5080961;28;20251;-70
2021/10/09 11:07:36;;;;;;;29.70;20.10;;;32.70;36.00;;;;;;5065267;28;20947;-72
2021/10/09 11:10:16;;;;;;;24.63;20.25;;;32.80;35.80;;;;;;5064939;28;20212;-71
2021/10/09 11:12:47;;;;;;;26.65;20.50;;;32.90;35.90;;;;;;5066909;28;20197;-71
2021/10/09 11:15:20;;;;;;;26.50;20.52;;;32.90;36.00;;;;;;5067572;28;20190;-71
2021/10/09 11:18:04;;;;;;;30.50;21.52;;;33.00;36.00;;;;;;5069669;28;20241;-71
2021/10/09 11:20:41;;;;;;;28.90;20.92;;;33.00;36.30;;;;;;5081076;28;20177;-71
2021/10/09 11:23:10;;;;;;;29.20;20.52;;;33.00;36.30;;;;;;5046181;28;20186;-71
2021/10/09 11:25:37;;;;;;;29.80;20.05;;;33.10;36.20;;;;;;5061746;28;20231;-72
2021/10/09 11:28:05;;;;;;;28.63;21.35;;;33.10;36.00;;;;;;5062101;28;20205;-70
2021/10/09 11:30:32;;;;;;;28.60;20.38;;;33.10;35.60;;;;;;5080450;28;20550;-73
2021/10/09 11:32:59;;;;;;;25.88;20.65;;;33.00;35.80;;;;;;5066737;28;20194;-73
2021/10/09 11:35:41;;;;;;;25.92;19.63;;;33.00;35.80;;;;;;5066174;28;20548;-72
2021/10/09 11:38:25;;;;;;;31.48;19.05;;;32.80;35.70;;;;;;5068024;28;20620;-72
2021/10/09 11:40:54;;;;;;;32.50;21.67;;;32.70;35.40;;;;;;5064491;28;20182;-74
2021/10/09 11:46:37;;;;;;;24.17;19.45;;;32.50;35.40;;;;;;5067811;28;20217;-73
2021/10/09 11:55:33;;;;;;;30.33;19.27;;;32.40;35.50;;;;;;5064893;28;20189;-73
2021/10/09 11:58:03;;;;;;;29.85;19.05;;;32.40;35.40;;;;;;5057885;28;20230;-73
2021/10/09 12:00:28;;;;;;;44.22;20.92;;;32.50;35.20;;;;;;5054474;28;20294;-72
2021/10/09 12:02:54;;;;;;;37.38;20.48;;;32.60;35.20;;;;;;5063930;28;20329;-72
2021/10/09 12:05:20;;;;;;;27.40;19.95;;;32.70;35.30;;;;;;5063124;28;20950;-72
2021/10/09 12:08:13;;;;;;;28.08;19.20;;;32.70;35.10;;;;;;5064693;28;20221;-72
2021/10/09 12:10:38;;;;;;;26.40;18.25;;;32.70;34.90;;;;;;5047271;28;20178;-72
2021/10/09 12:13:05;;;;;;;23.50;18.58;;;32.60;34.90;;;;;;5065696;28;20302;-71
2021/10/09 12:15:33;;;;;;;30.85;19.48;;;32.40;35.00;;;;;;5055596;28;20179;-72
2021/10/09 12:18:02;;;;;;;31.20;19.95;;;32.30;35.00;;;;;;5066685;28;20200;-72
2021/10/09 12:20:27;;;;;;;25.58;19.60;;;32.10;35.00;;;;;;5046468;28;20185;-70
2021/10/09 12:22:55;;;;;;;30.60;19.45;;;32.00;35.20;;;;;;5049684;28;20561;-70
2021/10/09 12:25:30;;;;;;;26.65;19.98;;;31.90;35.60;;;;;;5047230;28;20185;-71
2021/10/09 12:27:57;;;;;;;28.60;19.98;;;31.80;35.70;;;;;;5081539;28;20254;-72
2021/10/09 12:30:43;;;;;;;29.98;19.73;;;31.70;36.00;;;;;;5045018;28;20205;-71
2021/10/09 12:33:09;;;;;;;33.92;21.15;;;31.60;36.30;;;;;;5066029;28;20178;-72
2021/10/09 12:35:35;;;;;;;32.03;19.10;;;31.60;36.50;;;;;;5065385;28;20179;-72
2021/10/09 12:38:03;;;;;;;26.58;19.92;;;31.60;36.40;;;;;;5065669;28;20189;-72
2021/10/09 12:40:41;;;;;;;25.55;18.95;;;31.50;36.40;;;;;;5066360;28;20188;-72
2021/10/09 12:43:11;;;;;;;30.75;20.42;;;31.40;36.70;;;;;;5067106;28;20560;-72
2021/10/09 12:45:38;;;;;;;27.95;19.88;;;31.20;36.90;;;;;;5080745;28;20203;-70
2021/10/09 12:48:04;;;;;;;28.27;20.20;;;31.10;36.90;;;;;;5067481;28;20213;-71
2021/10/09 12:50:33;;;;;;;32.60;20.85;;;31.00;37.30;;;;;;5064510;28;20257;-71
2021/10/09 12:52:59;;;;;;;26.95;20.50;;;31.00;37.40;;;;;;5061884;28;20189;-72
2021/10/09 12:55:26;;;;;;;27.35;20.65;;;30.90;37.40;;;;;;5048458;28;20178;-72
2021/10/09 12:57:55;;;;;;;32.92;20.90;;;30.70;37.50;;;;;;5080105;28;20777;-71
2021/10/09 13:00:22;;;;;;;30.45;20.58;;;30.50;38.10;;;;;;5063316;28;20189;-71
2021/10/09 13:02:51;;;;;;;29.60;19.17;;;30.40;38.40;;;;;;5065271;28;20253;-71
2021/10/09 13:05:16;;;;;;;28.65;20.40;;;30.30;38.60;;;;;;5066316;28;20267;-71
2021/10/09 13:07:42;;;;;;;30.08;21.13;;;30.10;38.60;;;;;;5062864;28;20237;-72
2021/10/09 13:10:10;;;;;;;33.22;22.00;;;29.90;38.70;;;;;;5063460;28;20174;-71
2021/10/09 13:12:36;;;;;;;34.08;21.20;;;29.60;38.90;;;;;;5048464;28;20243;-72
2021/10/09 13:15:02;;;;;;;31.05;21.45;;;29.30;39.50;;;;;;5066376;28;20182;-71
2021/10/09 13:17:28;;;;;;;28.80;21.55;;;29.10;39.80;;;;;;5049640;28;20192;-71
2021/10/09 13:19:53;;;;;;;33.42;21.50;;;29.00;40.10;;;;;;5070689;28;20182;-72
2021/10/09 13:22:19;;;;;;;33.97;22.05;;;28.90;40.50;;;;;;5069484;28;20189;-71
2021/10/09 13:24:44;;;;;;;31.88;21.88;;;28.70;40.60;;;;;;5049184;28;20186;-71
2021/10/09 13:27:10;;;;;;;33.03;22.42;;;28.60;40.90;;;;;;5068437;28;20579;-71
2021/10/09 13:29:36;;;;;;;32.80;21.38;;;28.50;41.20;;;;;;5050311;28;20185;-70
2021/10/09 13:32:01;;;;;;;35.35;21.33;;;28.30;41.40;;;;;;5067512;28;20680;-71
2021/10/09 13:34:27;;;;;;;32.90;22.23;;;28.10;41.70;;;;;;5070123;28;20320;-70
2021/10/09 13:36:53;;;;;;;34.85;22.30;;;27.90;41.90;;;;;;5070039;28;20231;-70
2021/10/09 13:39:18;;;;;;;32.65;23.25;;;27.70;42.10;;;;;;5050208;28;20324;-71
2021/10/09 13:41:44;;;;;;;34.50;23.48;;;27.50;42.60;;;;;;5084639;28;20186;-70
2021/10/09 13:44:10;;;;;;;39.40;23.85;;;27.30;43.10;;;;;;5068434;28;20822;-73
2021/10/09 13:46:37;;;;;;;35.88;23.70;;;27.10;43.60;;;;;;5052354;28;20689;-71
2021/10/09 13:49:07;;;;;;;41.90;23.65;;;26.90;44.00;;;;;;5069963;28;20193;-69
2021/10/09 13:51:33;;;;;;;36.63;23.35;;;26.70;44.40;;;;;;5085666;28;20179;-72
2021/10/09 13:53:59;;;;;;;38.70;24.45;;;26.60;44.70;;;;;;5068510;28;20197;-71
2021/10/09 13:56:25;;;;;;;34.78;23.65;;;26.50;45.00;;;;;;5067800;28;20178;-71
2021/10/09 13:58:51;;;;;;;36.92;23.55;;;26.40;45.20;;;;;;5068045;28;20591;-72
2021/10/09 14:01:17;;;;;;;38.97;24.75;;;26.40;45.60;;;;;;5069326;28;20372;-72
2021/10/09 14:03:44;;;;;;;39.13;24.48;;;26.30;45.80;;;;;;5051578;28;20222;-71
2021/10/09 14:06:10;;;;;;;33.33;23.90;;;26.20;45.90;;;;;;5067868;28;20262;-71
2021/10/09 14:08:35;;;;;;;35.17;22.58;;;26.20;46.10;;;;;;5070312;28;20202;-72
2021/10/09 14:11:01;;;;;;;37.33;24.10;;;26.00;46.20;;;;;;5068396;28;20276;-74
2021/10/09 14:13:27;;;;;;;34.72;23.98;;;25.90;46.50;;;;;;5070674;28;20197;-72
2021/10/09 14:15:53;;;;;;;36.72;24.58;;;25.80;46.90;;;;;;5049492;28;20187;-70
2021/10/09 14:18:19;;;;;;;38.55;24.05;;;25.70;47.40;;;;;;5068436;28;20193;-70
2021/10/09 14:20:54;;;;;;;35.50;25.23;;;25.60;47.90;;;;;;5069231;28;20194;-70
2021/10/09 14:23:21;;;;;;;38.50;27.35;;;25.60;48.20;;;;;;5067017;28;20502;-72
2021/10/09 14:25:48;;;;;;;37.60;26.05;;;26.10;47.50;;;;;;5063980;28;20426;-73
2021/10/09 14:28:14;;;;;;;37.50;25.00;;;26.20;46.70;;;;;;5069112;28;20693;-72
2021/10/09 14:30:40;;;;;;;40.20;26.02;;;25.80;47.60;;;;;;5067904;28;20504;-70
2021/10/09 14:33:07;;;;;;;34.22;23.48;;;26.00;47.90;;;;;;5068338;28;20189;-71
2021/10/09 14:35:35;;;;;;;36.53;26.38;;;25.60;48.30;;;;;;5047668;28;20908;-72
2021/10/09 14:38:01;;;;;;;39.63;26.10;;;25.80;48.10;;;;;;5067593;28;20430;-71